createdAt,value
2022-09-23T00:03:34.335Z,67.63
2022-09-23T00:08:40.250Z,68.25
2022-09-23T00:13:46.306Z,69.02
2022-09-23T00:18:50.678Z,69.62
2022-09-23T00:23:55.542Z,69.24
2022-09-23T00:28:58.898Z,68.93
2022-09-23T00:34:02.941Z,69.55
2022-09-23T00:39:07.927Z,70.90
2022-09-23T00:44:47.877Z,71.25
2022-09-23T00:50:02.138Z,71.36
2022-09-23T00:55:12.635Z,70.63
2022-09-23T01:00:16.758Z,70.44
2022-09-23T01:05:20.602Z,70.74
2022-09-23T01:10:26.673Z,70.84
2022-09-23T01:15:37.003Z,71.09
2022-09-23T01:21:14.451Z,71.60
2022-09-23T01:26:43.945Z,71.15
2022-09-23T01:31:57.979Z,70.12
2022-09-23T01:37:09.062Z,70.05
2022-09-23T01:42:18.671Z,70.02
2022-09-23T01:47:30.765Z,70.76
2022-09-23T01:52:41.704Z,71.13
2022-09-23T01:57:50.590Z,72.60
2022-09-23T02:03:01.072Z,73.83
2022-09-23T02:08:10.620Z,73.15
2022-09-23T02:13:20.685Z,73.02
2022-09-23T02:18:29.818Z,72.63
2022-09-23T02:23:37.563Z,73.03
2022-09-23T02:28:49.944Z,73.68
2022-09-23T02:33:58.466Z,73.65
2022-09-23T02:39:06.990Z,73.69
2022-09-23T02:44:13.431Z,73.07
2022-09-23T02:49:21.873Z,72.51
2022-09-23T02:54:29.889Z,72.32
2022-09-23T02:59:35.134Z,72.24
2022-09-23T03:04:50.543Z,72.99
2022-09-23T03:10:01.398Z,72.48
2022-09-23T03:15:20.040Z,72.37
2022-09-23T03:20:31.505Z,72.19
2022-09-23T03:25:39.153Z,72.14
2022-09-23T03:30:43.639Z,71.51
2022-09-23T03:36:11.046Z,72.84
2022-09-23T03:41:19.783Z,72.61
2022-09-23T03:46:26.647Z,73.23
2022-09-23T03:51:31.481Z,73.68
2022-09-23T03:56:35.070Z,72.59
2022-09-23T04:01:38.625Z,72.10
2022-09-23T04:06:43.465Z,70.92
2022-09-23T04:11:47.401Z,71.19
2022-09-23T04:16:51.774Z,70.65
2022-09-23T04:21:56.601Z,71.41
2022-09-23T04:27:00.737Z,73.38
2022-09-23T04:32:04.382Z,74.01
2022-09-23T04:37:09.222Z,75.20
2022-09-23T04:42:12.644Z,75.10
2022-09-23T04:47:16.391Z,76.20
2022-09-23T04:52:21.499Z,76.23
2022-09-23T04:57:25.247Z,76.77
2022-09-23T05:02:28.759Z,77.00
2022-09-23T05:07:33.591Z,76.89
2022-09-23T05:12:37.024Z,78.28
2022-09-23T05:17:40.450Z,78.28
2022-09-23T05:22:45.741Z,78.17
2022-09-23T05:27:49.138Z,78.23
2022-09-23T05:32:52.555Z,78.29
2022-09-23T05:37:57.827Z,77.85
2022-09-23T05:43:01.225Z,77.70
2022-09-23T05:48:04.847Z,76.28
2022-09-23T05:53:09.867Z,75.82
2022-09-23T05:58:13.485Z,75.07
2022-09-23T06:03:19.083Z,74.42
2022-09-23T06:08:25.287Z,73.78
2022-09-23T06:13:28.705Z,73.41
2022-09-23T06:18:32.050Z,73.04
2022-09-23T06:23:39.901Z,72.10
2022-09-23T06:28:46.388Z,72.28
2022-09-23T06:34:04.619Z,71.83
2022-09-23T06:39:14.317Z,70.85
2022-09-23T06:44:18.014Z,69.15
2022-09-23T06:49:22.806Z,67.00
2022-09-23T06:54:29.147Z,66.44
2022-09-23T06:59:32.537Z,66.51
2022-09-23T07:04:36.097Z,64.79
2022-09-23T07:09:40.965Z,63.29
2022-09-23T07:14:44.570Z,62.77
2022-09-23T07:19:47.984Z,62.47
2022-09-23T07:24:56.133Z,62.18
2022-09-23T07:29:59.622Z,60.48
2022-09-23T07:35:03.064Z,61.89
2022-09-23T07:40:09.621Z,60.72
2022-09-23T07:45:14.275Z,59.73
2022-09-23T07:50:19.192Z,59.54
2022-09-23T07:55:24.307Z,56.64
2022-09-23T08:00:27.827Z,57.49
2022-09-23T08:05:31.966Z,56.10
2022-09-23T08:10:36.780Z,54.87
2022-09-23T08:15:44.327Z,54.10
2022-09-23T08:20:48.306Z,52.95
2022-09-23T08:25:59.735Z,52.47
2022-09-23T08:31:03.574Z,50.99
2022-09-23T08:36:08.061Z,50.78
2022-09-23T08:41:23.824Z,50.59
2022-09-23T08:46:31.219Z,50.36
2022-09-23T08:51:47.052Z,49.51
2022-09-23T08:56:53.447Z,49.02
2022-09-23T09:02:01.784Z,49.31
2022-09-23T09:12:44.694Z,49.18
2022-09-23T09:17:56.746Z,46.89
2022-09-23T09:23:01.175Z,45.56
2022-09-23T09:28:21.222Z,47.34
2022-09-23T09:33:30.956Z,47.67
2022-09-23T09:38:34.484Z,46.76
2022-09-23T09:43:44.012Z,47.53
2022-09-23T09:48:53.979Z,46.93
2022-09-23T09:54:17.575Z,48.20
2022-09-23T09:59:28.612Z,46.88
2022-09-23T10:04:36.821Z,45.42
2022-09-23T10:09:43.158Z,45.08
2022-09-23T10:14:50.642Z,44.82
2022-09-23T10:20:00.914Z,43.49
2022-09-23T10:25:09.981Z,46.53
2022-09-23T10:30:24.148Z,45.52
2022-09-23T10:35:28.462Z,46.24
2022-09-23T10:40:51.562Z,45.55
2022-09-23T10:46:21.571Z,45.72
2022-09-23T10:51:33.429Z,46.87
2022-09-23T10:56:40.823Z,47.86
2022-09-23T11:01:52.642Z,48.11
2022-09-23T11:07:08.980Z,48.33
2022-09-23T11:12:28.625Z,45.80
2022-09-23T11:18:20.575Z,48.13
2022-09-23T11:23:38.573Z,48.64
2022-09-23T11:28:56.729Z,48.22
2022-09-23T11:34:18.267Z,46.27
2022-09-23T11:39:29.561Z,43.96
2022-09-23T11:44:38.258Z,44.82
2022-09-23T11:49:50.901Z,45.34
2022-09-23T11:55:02.375Z,46.29
2022-09-23T12:00:15.232Z,46.87
2022-09-23T12:05:24.831Z,45.37
2022-09-23T12:10:42.398Z,44.20
2022-09-23T12:16:00.187Z,45.42
2022-09-23T12:21:39.079Z,46.08
2022-09-23T12:26:44.973Z,45.64
2022-09-23T12:31:49.908Z,45.04
2022-09-23T12:36:55.314Z,44.79
2022-09-23T12:42:01.032Z,44.16
2022-09-23T12:47:32.411Z,46.50
2022-09-23T12:52:37.593Z,47.67
2022-09-23T12:57:43.043Z,47.14
2022-09-23T13:03:10.123Z,47.60
2022-09-23T13:08:18.857Z,47.19
2022-09-23T13:13:29.827Z,46.38
2022-09-23T13:18:58.288Z,46.13
2022-09-23T13:24:36.366Z,47.06
2022-09-23T13:29:45.075Z,47.39
2022-09-23T13:34:58.293Z,47.13
2022-09-23T13:40:20.537Z,55.00
2022-09-23T13:45:26.805Z,56.43
2022-09-23T13:50:34.817Z,58.16
2022-09-23T13:55:41.547Z,57.30
2022-09-23T14:00:45.035Z,57.40
2022-09-23T14:05:49.927Z,57.87
2022-09-23T14:10:55.580Z,56.80
2022-09-23T14:16:03.437Z,56.60
2022-09-23T14:21:07.923Z,57.37
2022-09-23T14:26:13.277Z,57.21
2022-09-23T14:31:17.008Z,57.99
2022-09-23T14:36:38.083Z,57.68
2022-09-23T14:41:45.855Z,57.64
2022-09-23T14:46:57.794Z,57.26
2022-09-23T14:52:07.162Z,57.18
2022-09-23T14:57:28.387Z,57.09
2022-09-23T15:02:35.062Z,57.26
2022-09-23T15:07:39.723Z,57.32
2022-09-23T15:12:49.868Z,57.50
2022-09-23T15:17:53.303Z,58.98
2022-09-23T15:22:57.323Z,58.13
2022-09-23T15:28:19.038Z,59.27
2022-09-23T15:33:27.996Z,59.22
2022-09-23T15:38:31.899Z,59.15
2022-09-23T15:43:37.833Z,59.01
2022-09-23T15:48:44.659Z,60.04
2022-09-23T15:53:48.489Z,60.31
2022-09-23T15:58:53.301Z,60.89
2022-09-23T16:03:57.258Z,61.47
2022-09-23T16:09:00.709Z,62.31
2022-09-23T16:14:06.480Z,62.79
2022-09-23T16:19:09.918Z,63.88
2022-09-23T16:24:17.564Z,64.28
2022-09-23T16:29:22.699Z,64.68
2022-09-23T16:34:26.134Z,64.31
2022-09-23T16:39:29.526Z,65.37
2022-09-23T16:44:34.371Z,65.72
2022-09-23T16:49:37.832Z,65.54
2022-09-23T16:54:42.308Z,65.64
2022-09-23T17:00:04.563Z,66.71
2022-09-23T17:05:08.973Z,67.28
2022-09-23T17:10:13.070Z,66.64
2022-09-23T17:15:17.946Z,66.94
2022-09-23T17:20:21.436Z,67.14
2022-09-23T17:25:24.915Z,66.88
2022-09-23T17:30:30.175Z,67.64
2022-09-23T17:35:33.637Z,67.73
2022-09-23T17:40:41.545Z,67.21
2022-09-23T17:45:46.525Z,67.17
2022-09-23T17:51:02.107Z,67.11
2022-09-23T17:56:07.380Z,66.95
2022-09-23T18:01:13.456Z,66.35
2022-09-23T18:06:18.931Z,66.80
2022-09-23T18:11:24.184Z,66.78
2022-09-23T18:16:31.073Z,67.34
2022-09-23T18:21:36.574Z,67.30
2022-09-23T18:26:40.341Z,67.30
2022-09-23T18:31:45.579Z,66.61
2022-09-23T18:36:49.633Z,66.90
2022-09-23T18:41:53.017Z,66.93
2022-09-23T18:46:57.845Z,66.40
2022-09-23T18:52:01.323Z,67.42
2022-09-23T18:57:05.258Z,67.37
2022-09-23T19:02:10.353Z,67.93
2022-09-23T19:07:14.232Z,68.36
2022-09-23T19:12:17.600Z,69.11
2022-09-23T19:17:22.760Z,68.90
2022-09-23T19:22:26.493Z,67.55
2022-09-23T19:27:29.857Z,67.10
2022-09-23T19:32:34.965Z,67.28
2022-09-23T19:37:38.417Z,66.36
2022-09-23T19:42:43.064Z,66.35
2022-09-23T19:47:47.866Z,66.29
2022-09-23T19:52:51.932Z,66.08
2022-09-23T19:57:55.631Z,66.05
2022-09-23T20:03:00.876Z,66.98
2022-09-23T20:08:05.210Z,67.59
2022-09-23T20:13:08.749Z,67.62
2022-09-23T20:18:13.549Z,68.11
2022-09-23T20:23:16.913Z,67.86
2022-09-23T20:28:22.496Z,68.30
2022-09-23T20:33:27.570Z,68.38
2022-09-23T20:38:32.162Z,68.01
2022-09-23T20:43:35.634Z,68.16
2022-09-23T20:48:41.255Z,67.88
2022-09-23T20:53:46.893Z,67.99
2022-09-23T20:58:50.968Z,67.95
2022-09-23T21:03:56.059Z,68.03
2022-09-23T21:08:59.813Z,67.92
2022-09-23T21:14:03.815Z,68.89
2022-09-23T21:19:09.474Z,68.88
2022-09-23T21:29:36.857Z,68.19
2022-09-23T21:34:41.946Z,68.85
2022-09-23T21:40:05.967Z,68.81
2022-09-23T21:45:10.106Z,68.23
2022-09-23T21:50:15.406Z,68.45
2022-09-23T21:55:19.369Z,68.56
2022-09-23T22:00:23.586Z,67.65
2022-09-23T22:05:28.695Z,68.07
2022-09-23T22:10:32.121Z,67.30
2022-09-23T22:15:37.580Z,67.67
2022-09-23T22:20:42.563Z,68.19
2022-09-23T22:25:45.980Z,68.50
2022-09-23T22:31:06.805Z,68.69
2022-09-23T22:36:12.984Z,68.58
2022-09-23T22:41:16.458Z,68.46
2022-09-23T22:46:22.025Z,68.91
2022-09-23T22:51:27.246Z,67.90
2022-09-23T22:56:30.958Z,68.27
2022-09-23T23:01:35.551Z,68.05
2022-09-23T23:06:41.419Z,68.36
2022-09-23T23:11:45.653Z,68.63
2022-09-23T23:16:49.428Z,68.27
2022-09-23T23:21:54.509Z,68.94
2022-09-23T23:26:58.140Z,68.70
2022-09-23T23:32:01.573Z,68.77
2022-09-23T23:37:06.709Z,68.59
2022-09-23T23:42:10.296Z,68.74
2022-09-23T23:47:13.971Z,68.09
2022-09-23T23:52:18.899Z,68.62
2022-09-23T23:57:22.315Z,68.33
